createdAt,value
2023-10-16T00:03:44.093Z,96773.09
2023-10-16T00:08:55.119Z,96759.63
2023-10-16T00:13:59.148Z,96766.44
2023-10-16T00:19:02.552Z,96765.16
2023-10-16T00:24:08.842Z,96767.19
2023-10-16T00:29:20.835Z,96763.94
2023-10-16T00:34:24.337Z,96751.81
2023-10-16T00:39:30.367Z,96751.06
2023-10-16T00:44:35.951Z,96750.38
2023-10-16T00:49:40.848Z,96746.38
2023-10-16T00:54:48.033Z,96755.06
2023-10-16T00:59:51.403Z,96763.53
2023-10-16T01:04:54.723Z,96762.06
2023-10-16T01:10:00.943Z,96765.81
2023-10-16T01:15:05.718Z,96764.00
2023-10-16T01:20:11.189Z,96760.72
2023-10-16T01:25:16.779Z,96755.06
2023-10-16T01:30:20.729Z,96761.88
2023-10-16T01:35:24.031Z,96758.72
2023-10-16T01:40:29.587Z,96750.53
2023-10-16T01:45:33.415Z,96748.97
2023-10-16T01:50:39.596Z,96754.47
2023-10-16T01:55:52.534Z,96751.22
2023-10-16T02:00:56.430Z,96739.31
2023-10-16T02:05:59.751Z,96738.19
2023-10-16T02:11:04.638Z,96734.00
2023-10-16T02:16:11.413Z,96728.84
2023-10-16T02:21:15.573Z,96725.09
2023-10-16T02:26:20.748Z,96729.81
2023-10-16T02:31:24.233Z,96719.91
2023-10-16T02:36:27.962Z,96720.28
2023-10-16T02:41:32.622Z,96722.72
2023-10-16T02:46:37.512Z,96714.88
2023-10-16T02:51:40.970Z,96717.13
2023-10-16T02:56:45.747Z,96721.09
2023-10-16T03:01:51.917Z,96721.28
2023-10-16T03:06:55.900Z,96715.75
2023-10-16T03:12:09.191Z,96728.16
2023-10-16T03:17:18.619Z,96719.75
2023-10-16T03:22:22.379Z,96721.69
2023-10-16T03:27:30.385Z,96721.94
2023-10-16T03:32:35.430Z,96723.66
2023-10-16T03:37:38.821Z,96725.78
2023-10-16T03:42:45.358Z,96725.44
2023-10-16T03:47:52.989Z,96734.75
2023-10-16T03:52:56.552Z,96735.31
2023-10-16T03:58:02.229Z,96727.38
2023-10-16T04:03:10.386Z,96729.22
2023-10-16T04:08:14.933Z,96726.38
2023-10-16T04:13:19.984Z,96719.59
2023-10-16T04:18:31.849Z,96713.03
2023-10-16T04:23:38.850Z,96713.81
2023-10-16T04:29:12.384Z,96714.19
2023-10-16T04:34:27.022Z,96716.78
2023-10-16T04:39:53.497Z,96717.03
2023-10-16T04:45:22.927Z,96715.75
2023-10-16T04:50:44.300Z,96713.53
2023-10-16T04:56:05.770Z,96705.28
2023-10-16T05:01:34.094Z,96708.16
2023-10-16T05:06:50.360Z,96700.78
2023-10-16T05:12:07.750Z,96694.50
2023-10-16T05:17:22.998Z,96695.03
2023-10-16T05:22:43.697Z,96685.69
2023-10-16T05:28:04.418Z,96689.94
2023-10-16T05:33:26.748Z,96688.38
2023-10-16T05:38:47.578Z,96676.84
2023-10-16T05:44:08.120Z,96687.75
2023-10-16T05:49:30.388Z,96687.47
2023-10-16T05:54:51.020Z,96679.34
2023-10-16T06:00:13.772Z,96680.91
2023-10-16T06:05:36.030Z,96683.16
2023-10-16T06:10:56.976Z,96694.56
2023-10-16T06:16:00.319Z,96695.31
2023-10-16T06:21:05.322Z,96693.69
2023-10-16T06:26:10.098Z,96708.09
2023-10-16T06:31:14.655Z,96711.88
2023-10-16T06:36:19.536Z,96704.22
2023-10-16T06:41:23.487Z,96707.72
2023-10-16T06:46:27.402Z,96702.72
2023-10-16T06:51:35.795Z,96703.25
2023-10-16T06:56:41.018Z,96707.78
2023-10-16T07:01:53.595Z,96712.38
2023-10-16T07:07:02.251Z,96712.88
2023-10-16T07:12:13.818Z,96707.06
2023-10-16T07:17:26.236Z,96718.38
2023-10-16T07:23:01.628Z,96707.13
2023-10-16T07:28:14.958Z,96710.00
2023-10-16T07:33:25.371Z,96710.66
2023-10-16T07:38:38.815Z,96718.06
2023-10-16T07:43:47.945Z,96726.84
2023-10-16T07:48:59.353Z,96716.94
2023-10-16T07:54:09.899Z,96722.25
2023-10-16T07:59:20.340Z,96723.84
2023-10-16T08:04:37.614Z,96727.84
2023-10-16T08:09:59.527Z,96727.72
2023-10-16T08:15:14.048Z,96714.63
2023-10-16T08:20:23.157Z,96720.91
2023-10-16T08:25:36.883Z,96719.88
2023-10-16T08:30:51.960Z,96729.31
2023-10-16T08:36:00.060Z,96717.63
2023-10-16T08:41:19.050Z,96719.28
2023-10-16T08:46:32.847Z,96729.38
2023-10-16T08:51:42.894Z,96722.34
2023-10-16T08:56:50.679Z,96713.84
2023-10-16T09:02:03.475Z,96718.66
2023-10-16T09:07:22.214Z,96715.88
2023-10-16T09:12:46.484Z,96711.22
2023-10-16T09:17:52.413Z,96707.59
2023-10-16T09:23:08.239Z,96711.72
2023-10-16T09:28:20.850Z,96708.09
2023-10-16T09:33:29.079Z,96711.00
2023-10-16T09:38:37.151Z,96704.97
2023-10-16T09:43:45.024Z,96701.13
2023-10-16T09:49:00.786Z,96698.47
2023-10-16T09:54:06.027Z,96692.34
2023-10-16T09:59:26.781Z,96695.19
2023-10-16T10:04:37.240Z,96691.31
2023-10-16T10:09:44.393Z,96686.47
2023-10-16T10:15:03.018Z,96684.16
2023-10-16T10:20:25.920Z,96679.22
2023-10-16T10:25:47.201Z,96678.25
2023-10-16T10:30:54.957Z,96684.38
2023-10-16T10:36:32.061Z,96670.72
2023-10-16T10:41:56.433Z,96659.81
2023-10-16T10:47:06.128Z,96652.63
2023-10-16T10:52:14.533Z,96650.34
2023-10-16T10:57:21.269Z,96649.72
2023-10-16T11:02:54.379Z,96642.03
2023-10-16T11:08:19.662Z,96639.16
2023-10-16T11:13:32.430Z,96630.31
2023-10-16T11:18:42.678Z,96626.16
2023-10-16T11:23:57.859Z,96609.75
2023-10-16T11:29:06.428Z,96605.78
2023-10-16T11:34:24.034Z,96594.56
2023-10-16T11:39:35.291Z,96583.03
2023-10-16T11:44:47.355Z,96584.22
2023-10-16T11:50:15.477Z,96565.84
2023-10-16T11:55:27.360Z,96555.41
2023-10-16T12:00:37.878Z,96552.69
2023-10-16T12:05:46.754Z,96555.63
2023-10-16T12:10:53.027Z,96533.22
2023-10-16T12:16:14.375Z,96535.59
2023-10-16T12:21:30.235Z,96533.66
2023-10-16T12:26:50.631Z,96535.19
2023-10-16T12:31:58.787Z,96527.06
2023-10-16T12:37:09.347Z,96524.16
2023-10-16T12:42:28.696Z,96510.09
2023-10-16T12:47:44.757Z,96513.97
2023-10-16T12:52:56.633Z,96512.31
2023-10-16T12:58:16.204Z,96506.97
2023-10-16T13:03:25.743Z,96501.78
2023-10-16T13:08:34.607Z,96505.09
2023-10-16T13:13:39.941Z,96497.31
2023-10-16T13:18:50.378Z,96494.63
2023-10-16T13:23:57.800Z,96489.91
2023-10-16T13:29:15.531Z,96479.72
2023-10-16T13:34:26.113Z,96491.63
2023-10-16T13:39:37.485Z,96482.88
2023-10-16T13:44:45.689Z,96478.31
2023-10-16T13:49:54.546Z,96472.44
2023-10-16T13:55:02.501Z,96480.84
2023-10-16T14:00:07.836Z,96460.91
2023-10-16T14:05:14.747Z,96464.94
2023-10-16T14:10:25.460Z,96458.50
2023-10-16T14:15:36.181Z,96459.09
2023-10-16T14:20:42.944Z,96458.16
2023-10-16T14:25:50.822Z,96458.63
2023-10-16T14:31:02.450Z,96454.25
2023-10-16T14:36:12.308Z,96456.28
2023-10-16T14:41:28.291Z,96458.03
2023-10-16T14:46:38.277Z,96462.03
2023-10-16T14:51:43.378Z,96456.22
2023-10-16T14:56:54.256Z,96450.31
2023-10-16T15:02:12.024Z,96454.63
2023-10-16T15:07:17.437Z,96450.47
2023-10-16T15:12:23.610Z,96451.84
2023-10-16T15:17:29.748Z,96450.25
2023-10-16T15:22:34.502Z,96449.09
2023-10-16T15:27:44.037Z,96437.97
2023-10-16T15:32:48.782Z,96434.41
2023-10-16T15:37:57.828Z,96432.13
2023-10-16T15:43:06.958Z,96444.13
2023-10-16T15:48:15.201Z,96444.91
2023-10-16T15:53:25.869Z,96445.16
2023-10-16T15:58:35.534Z,96448.88
2023-10-16T16:03:39.272Z,96467.41
2023-10-16T16:08:42.813Z,96461.31
2023-10-16T16:13:48.066Z,96467.97
2023-10-16T16:18:51.373Z,96466.06
2023-10-16T16:23:54.951Z,96465.97
2023-10-16T16:28:59.565Z,96474.88
2023-10-16T16:34:02.947Z,96477.31
2023-10-16T16:39:13.572Z,96475.03
2023-10-16T16:44:18.676Z,96480.16
2023-10-16T16:49:22.073Z,96486.94
2023-10-16T16:54:27.973Z,96493.25
2023-10-16T16:59:32.677Z,96491.91
2023-10-16T17:04:36.225Z,96493.19
2023-10-16T17:09:39.599Z,96495.47
2023-10-16T17:14:44.399Z,96508.13
2023-10-16T17:19:48.981Z,96511.97
2023-10-16T17:24:52.598Z,96513.84
2023-10-16T17:29:57.432Z,96511.84
2023-10-16T17:35:00.867Z,96513.06
2023-10-16T17:40:08.129Z,96521.75
2023-10-16T17:45:12.935Z,96530.66
2023-10-16T17:50:16.389Z,96531.28
2023-10-16T17:55:19.917Z,96538.75
2023-10-16T18:00:26.803Z,96538.63
2023-10-16T18:05:34.368Z,96542.50
2023-10-16T18:10:42.524Z,96537.66
2023-10-16T18:15:52.706Z,96532.16
2023-10-16T18:20:57.706Z,96539.69
2023-10-16T18:26:01.022Z,96545.78
2023-10-16T18:31:05.761Z,96551.81
2023-10-16T18:36:09.663Z,96554.63
2023-10-16T18:41:13.569Z,96556.22
2023-10-16T18:46:18.413Z,96553.03
2023-10-16T18:51:22.906Z,96551.59
2023-10-16T18:56:27.176Z,96553.44
2023-10-16T19:01:32.830Z,96552.63
2023-10-16T19:06:36.198Z,96550.59
2023-10-16T19:11:39.719Z,96549.50
2023-10-16T19:16:44.614Z,96558.69
2023-10-16T19:21:47.910Z,96550.34
2023-10-16T19:26:53.954Z,96549.94
2023-10-16T19:31:58.939Z,96556.81
2023-10-16T19:37:03.116Z,96565.03
2023-10-16T19:42:06.597Z,96561.72
2023-10-16T19:47:11.518Z,96572.19
2023-10-16T19:52:18.113Z,96577.28
2023-10-16T19:57:21.396Z,96589.22
2023-10-16T20:02:26.254Z,96602.47
2023-10-16T20:07:29.491Z,96594.69
2023-10-16T20:12:32.910Z,96605.28
2023-10-16T20:17:38.822Z,96597.94
2023-10-16T20:22:42.270Z,96599.81
2023-10-16T20:27:46.220Z,96597.53
2023-10-16T20:32:51.085Z,96602.03
2023-10-16T20:37:54.658Z,96610.31
2023-10-16T20:42:58.303Z,96619.59
2023-10-16T20:48:06.567Z,96608.69
2023-10-16T20:53:10.856Z,96602.47
2023-10-16T20:58:19.199Z,96605.97
2023-10-16T21:03:24.056Z,96606.97
2023-10-16T21:08:28.128Z,96613.00
2023-10-16T21:13:31.572Z,96611.59
2023-10-16T21:18:36.323Z,96615.38
2023-10-16T21:23:39.690Z,96612.19
2023-10-16T21:28:43.067Z,96612.56
2023-10-16T21:33:49.085Z,96615.22
2023-10-16T21:38:53.079Z,96621.50
2023-10-16T21:43:56.468Z,96609.22
2023-10-16T21:49:01.330Z,96615.34
2023-10-16T21:54:05.149Z,96617.53
2023-10-16T21:59:11.095Z,96608.31
2023-10-16T22:04:16.521Z,96612.06
2023-10-16T22:09:22.809Z,96607.63
2023-10-16T22:14:26.792Z,96615.47
2023-10-16T22:19:38.087Z,96623.50
2023-10-16T22:24:41.338Z,96609.66
2023-10-16T22:29:46.469Z,96609.56
2023-10-16T22:34:51.130Z,96613.69
2023-10-16T22:39:54.429Z,96616.69
2023-10-16T22:44:59.098Z,96612.47
2023-10-16T22:50:04.359Z,96601.69
2023-10-16T22:55:08.440Z,96601.19
2023-10-16T23:00:14.399Z,96611.94
2023-10-16T23:05:19.206Z,96603.47
2023-10-16T23:10:22.524Z,96599.63
2023-10-16T23:15:32.279Z,96604.47
2023-10-16T23:20:37.042Z,96608.56
2023-10-16T23:25:42.344Z,96600.75
2023-10-16T23:30:45.767Z,96600.53
2023-10-16T23:35:58.766Z,96587.94
2023-10-16T23:41:05.240Z,96588.50
2023-10-16T23:46:12.236Z,96586.38
2023-10-16T23:51:17.449Z,96597.69
2023-10-16T23:56:27.404Z,96589.31
